sensor_id;sensor_type;location;lat;lon;timestamp;pressure;altitude;pressure_sealevel;temperature;humidity
5703;BME280;2876;51.738;10.050;2022-10-01T00:02:21;98591.06;;;9.47;87.30
5703;BME280;2876;51.738;10.050;2022-10-01T00:08:23;98579.63;;;9.78;86.14
5703;BME280;2876;51.738;10.050;2022-10-01T00:14:29;98569.81;;;9.59;86.71
5703;BME280;2876;51.738;10.050;2022-10-01T00:20:32;98556.00;;;9.62;87.09
5703;BME280;2876;51.738;10.050;2022-10-01T00:26:37;98554.63;;;9.91;86.04
5703;BME280;2876;51.738;10.050;2022-10-01T00:32:42;98546.03;;;9.76;86.41
5703;BME280;2876;51.738;10.050;2022-10-01T00:38:56;98540.50;;;9.71;86.73
5703;BME280;2876;51.738;10.050;2022-10-01T00:45:11;98541.78;;;9.68;87.17
5703;BME280;2876;51.738;10.050;2022-10-01T00:51:14;98538.63;;;9.78;86.81
5703;BME280;2876;51.738;10.050;2022-10-01T00:57:30;98541.91;;;9.80;87.08
5703;BME280;2876;51.738;10.050;2022-10-01T01:03:38;98523.78;;;9.82;86.87
5703;BME280;2876;51.738;10.050;2022-10-01T01:09:46;98506.44;;;10.16;85.78
5703;BME280;2876;51.738;10.050;2022-10-01T01:16:05;98520.09;;;10.08;86.19
5703;BME280;2876;51.738;10.050;2022-10-01T01:22:14;98502.63;;;10.05;86.10
5703;BME280;2876;51.738;10.050;2022-10-01T01:28:34;98496.28;;;9.93;86.42
5703;BME280;2876;51.738;10.050;2022-10-01T01:34:40;98491.97;;;9.92;86.50
5703;BME280;2876;51.738;10.050;2022-10-01T01:40:46;98489.81;;;10.07;86.51
5703;BME280;2876;51.738;10.050;2022-10-01T01:46:54;98468.66;;;9.99;86.60
5703;BME280;2876;51.738;10.050;2022-10-01T01:53:07;98451.22;;;10.15;86.72
5703;BME280;2876;51.738;10.050;2022-10-01T01:59:12;98456.09;;;10.25;86.16
5703;BME280;2876;51.738;10.050;2022-10-01T02:24:58;98429.84;;;10.08;87.21
5703;BME280;2876;51.738;10.050;2022-10-01T02:31:01;98425.66;;;10.12;87.62
5703;BME280;2876;51.738;10.050;2022-10-01T02:37:05;98427.50;;;10.19;87.45
5703;BME280;2876;51.738;10.050;2022-10-01T02:43:14;98423.59;;;10.14;87.88
5703;BME280;2876;51.738;10.050;2022-10-01T02:49:18;98415.28;;;9.98;88.65
5703;BME280;2876;51.738;10.050;2022-10-01T02:55:26;98400.69;;;9.94;88.49
5703;BME280;2876;51.738;10.050;2022-10-01T03:01:29;98392.78;;;10.05;88.10
5703;BME280;2876;51.738;10.050;2022-10-01T03:07:33;98384.06;;;10.10;88.07
5703;BME280;2876;51.738;10.050;2022-10-01T03:13:36;98367.72;;;10.18;87.23
5703;BME280;2876;51.738;10.050;2022-10-01T03:19:38;98362.34;;;10.43;86.79
5703;BME280;2876;51.738;10.050;2022-10-01T03:25:40;98335.91;;;10.47;85.52
5703;BME280;2876;51.738;10.050;2022-10-01T03:31:42;98330.25;;;10.73;84.43
5703;BME280;2876;51.738;10.050;2022-10-01T03:37:44;98324.78;;;10.61;84.61
5703;BME280;2876;51.738;10.050;2022-10-01T03:43:48;98305.22;;;10.61;84.71
5703;BME280;2876;51.738;10.050;2022-10-01T03:49:50;98298.19;;;10.78;84.03
5703;BME280;2876;51.738;10.050;2022-10-01T03:55:53;98282.13;;;10.90;82.94
5703;BME280;2876;51.738;10.050;2022-10-01T04:01:55;98285.97;;;10.82;83.83
5703;BME280;2876;51.738;10.050;2022-10-01T04:07:57;98280.50;;;10.89;84.04
5703;BME280;2876;51.738;10.050;2022-10-01T04:14:00;98293.88;;;11.07;83.09
5703;BME280;2876;51.738;10.050;2022-10-01T04:20:02;98299.25;;;10.77;84.10
5703;BME280;2876;51.738;10.050;2022-10-01T04:26:04;98298.03;;;10.91;83.83
5703;BME280;2876;51.738;10.050;2022-10-01T04:32:06;98284.38;;;10.93;83.55
5703;BME280;2876;51.738;10.050;2022-10-01T04:38:16;98302.50;;;10.79;84.81
5703;BME280;2876;51.738;10.050;2022-10-01T04:44:18;98298.72;;;10.99;84.60
5703;BME280;2876;51.738;10.050;2022-10-01T04:50:23;98288.00;;;10.99;85.73
5703;BME280;2876;51.738;10.050;2022-10-01T04:56:25;98272.50;;;11.01;87.48
5703;BME280;2876;51.738;10.050;2022-10-01T05:02:27;98251.81;;;10.89;88.47
5703;BME280;2876;51.738;10.050;2022-10-01T05:08:30;98237.06;;;11.10;88.88
5703;BME280;2876;51.738;10.050;2022-10-01T05:14:32;98213.34;;;10.96;90.63
5703;BME280;2876;51.738;10.050;2022-10-01T05:20:37;98189.69;;;11.04;90.83
5703;BME280;2876;51.738;10.050;2022-10-01T05:26:44;98184.41;;;10.86;91.90
5703;BME280;2876;51.738;10.050;2022-10-01T05:33:00;98192.78;;;10.89;92.49
5703;BME280;2876;51.738;10.050;2022-10-01T05:39:23;98192.09;;;10.94;93.26
5703;BME280;2876;51.738;10.050;2022-10-01T05:45:27;98163.88;;;10.91;93.99
5703;BME280;2876;51.738;10.050;2022-10-01T05:51:42;98163.22;;;10.66;94.79
5703;BME280;2876;51.738;10.050;2022-10-01T05:57:48;98149.41;;;10.92;94.07
5703;BME280;2876;51.738;10.050;2022-10-01T06:03:53;98141.63;;;10.91;94.03
5703;BME280;2876;51.738;10.050;2022-10-01T06:09:55;98131.22;;;11.06;95.09
5703;BME280;2876;51.738;10.050;2022-10-01T06:15:57;98110.94;;;10.99;95.54
5703;BME280;2876;51.738;10.050;2022-10-01T06:21:59;98098.78;;;10.84;96.99
5703;BME280;2876;51.738;10.050;2022-10-01T06:28:01;98100.19;;;10.75;97.05
5703;BME280;2876;51.738;10.050;2022-10-01T06:34:04;98096.38;;;10.95;96.71
5703;BME280;2876;51.738;10.050;2022-10-01T06:40:06;98109.28;;;10.98;97.30
5703;BME280;2876;51.738;10.050;2022-10-01T06:46:09;98111.59;;;10.71;98.02
5703;BME280;2876;51.738;10.050;2022-10-01T06:52:12;98114.63;;;10.74;98.72
5703;BME280;2876;51.738;10.050;2022-10-01T06:58:33;98119.88;;;10.81;98.92
5703;BME280;2876;51.738;10.050;2022-10-01T07:04:35;98104.03;;;10.79;99.64
5703;BME280;2876;51.738;10.050;2022-10-01T07:10:37;98097.66;;;11.04;98.18
5703;BME280;2876;51.738;10.050;2022-10-01T07:16:40;98097.72;;;10.74;99.97
5703;BME280;2876;51.738;10.050;2022-10-01T07:22:43;98084.91;;;10.76;100.00
5703;BME280;2876;51.738;10.050;2022-10-01T07:28:45;98065.69;;;10.90;99.95
5703;BME280;2876;51.738;10.050;2022-10-01T07:34:47;98056.81;;;10.78;100.00
5703;BME280;2876;51.738;10.050;2022-10-01T07:40:51;98080.50;;;10.81;100.00
5703;BME280;2876;51.738;10.050;2022-10-01T07:46:54;98088.66;;;11.10;100.00
5703;BME280;2876;51.738;10.050;2022-10-01T07:52:58;98084.56;;;11.07;100.00
5703;BME280;2876;51.738;10.050;2022-10-01T07:59:00;98078.97;;;10.97;100.00
5703;BME280;2876;51.738;10.050;2022-10-01T08:05:04;98076.06;;;11.10;100.00
5703;BME280;2876;51.738;10.050;2022-10-01T08:11:18;98074.06;;;11.06;100.00
5703;BME280;2876;51.738;10.050;2022-10-01T08:17:20;98081.31;;;10.93;100.00
5703;BME280;2876;51.738;10.050;2022-10-01T08:23:24;98094.03;;;11.10;100.00
5703;BME280;2876;51.738;10.050;2022-10-01T08:29:26;98083.53;;;11.08;100.00
5703;BME280;2876;51.738;10.050;2022-10-01T08:35:29;98087.97;;;11.14;100.00
5703;BME280;2876;51.738;10.050;2022-10-01T08:54:36;98090.13;;;11.53;100.00
5703;BME280;2876;51.738;10.050;2022-10-01T09:00:44;98086.56;;;11.76;100.00
5703;BME280;2876;51.738;10.050;2022-10-01T09:06:54;98082.38;;;11.91;100.00
5703;BME280;2876;51.738;10.050;2022-10-01T09:20:13;98088.41;;;11.99;100.00
5703;BME280;2876;51.738;10.050;2022-10-01T09:26:24;98080.97;;;11.89;99.51
5703;BME280;2876;51.738;10.050;2022-10-01T09:32:51;98079.75;;;12.25;98.19
5703;BME280;2876;51.738;10.050;2022-10-01T09:45:50;98083.47;;;12.07;99.55
5703;BME280;2876;51.738;10.050;2022-10-01T09:52:40;98069.91;;;12.31;98.62
5703;BME280;2876;51.738;10.050;2022-10-01T09:58:29;98076.94;;;12.03;98.86
5703;BME280;2876;51.738;10.050;2022-10-01T10:04:34;98080.44;;;12.32;98.50
5703;BME280;2876;51.738;10.050;2022-10-01T10:10:50;98082.47;;;12.42;98.60
5703;BME280;2876;51.738;10.050;2022-10-01T10:16:54;98082.66;;;12.52;98.49
5703;BME280;2876;51.738;10.050;2022-10-01T10:23:20;98090.09;;;12.79;96.19
5703;BME280;2876;51.738;10.050;2022-10-01T10:29:33;98101.91;;;12.78;96.50
5703;BME280;2876;51.738;10.050;2022-10-01T10:36:10;98121.72;;;12.55;96.60
5703;BME280;2876;51.738;10.050;2022-10-01T10:42:15;98133.31;;;12.43;97.60
5703;BME280;2876;51.738;10.050;2022-10-01T10:48:37;98133.00;;;12.40;97.14
5703;BME280;2876;51.738;10.050;2022-10-01T10:54:51;98138.28;;;12.35;98.06
5703;BME280;2876;51.738;10.050;2022-10-01T11:01:27;98121.91;;;12.36;98.52
5703;BME280;2876;51.738;10.050;2022-10-01T11:07:32;98125.16;;;12.38;97.73
5703;BME280;2876;51.738;10.050;2022-10-01T11:27:18;98142.03;;;12.79;97.01
5703;BME280;2876;51.738;10.050;2022-10-01T11:40:07;98152.59;;;13.31;94.22
5703;BME280;2876;51.738;10.050;2022-10-01T11:46:54;98154.84;;;13.56;94.06
5703;BME280;2876;51.738;10.050;2022-10-01T11:53:25;98151.38;;;13.78;92.02
5703;BME280;2876;51.738;10.050;2022-10-01T11:59:42;98147.09;;;13.82;91.89
5703;BME280;2876;51.738;10.050;2022-10-01T12:05:51;98135.31;;;14.86;90.33
5703;BME280;2876;51.738;10.050;2022-10-01T12:12:02;98148.94;;;15.76;83.99
5703;BME280;2876;51.738;10.050;2022-10-01T12:24:31;98148.31;;;16.16;82.92
5703;BME280;2876;51.738;10.050;2022-10-01T12:30:48;98157.97;;;17.25;79.27
5703;BME280;2876;51.738;10.050;2022-10-01T12:43:35;98156.59;;;17.74;76.29
5703;BME280;2876;51.738;10.050;2022-10-01T12:50:10;98148.94;;;17.91;74.10
5703;BME280;2876;51.738;10.050;2022-10-01T12:56:24;98156.63;;;19.22;68.17
5703;BME280;2876;51.738;10.050;2022-10-01T13:03:47;98157.44;;;17.34;75.02
5703;BME280;2876;51.738;10.050;2022-10-01T13:10:23;98150.69;;;16.90;77.08
5703;BME280;2876;51.738;10.050;2022-10-01T13:23:36;98177.19;;;16.00;81.16
5703;BME280;2876;51.738;10.050;2022-10-01T13:36:32;98201.31;;;15.64;82.67
5703;BME280;2876;51.738;10.050;2022-10-01T13:42:43;98197.22;;;15.25;85.81
5703;BME280;2876;51.738;10.050;2022-10-01T13:48:47;98207.06;;;16.26;83.98
5703;BME280;2876;51.738;10.050;2022-10-01T13:54:55;98222.63;;;18.34;73.17
5703;BME280;2876;51.738;10.050;2022-10-01T14:01:05;98215.97;;;17.30;76.63
5703;BME280;2876;51.738;10.050;2022-10-01T14:07:34;98220.22;;;16.69;78.91
5703;BME280;2876;51.738;10.050;2022-10-01T14:13:52;98221.31;;;16.11;81.95
5703;BME280;2876;51.738;10.050;2022-10-01T14:29:08;98230.19;;;15.27;87.48
5703;BME280;2876;51.738;10.050;2022-10-01T14:41:57;98248.22;;;15.21;91.66
5703;BME280;2876;51.738;10.050;2022-10-01T14:48:08;98263.97;;;15.29;90.72
5703;BME280;2876;51.738;10.050;2022-10-01T14:54:11;98266.16;;;14.78;91.13
5703;BME280;2876;51.738;10.050;2022-10-01T15:00:20;98282.47;;;16.69;79.98
5703;BME280;2876;51.738;10.050;2022-10-01T15:06:25;98294.94;;;15.76;78.35
5703;BME280;2876;51.738;10.050;2022-10-01T15:12:31;98303.81;;;16.56;74.35
5703;BME280;2876;51.738;10.050;2022-10-01T15:18:33;98274.41;;;15.47;81.27
5703;BME280;2876;51.738;10.050;2022-10-01T15:24:40;98370.94;;;14.42;81.65
5703;BME280;2876;51.738;10.050;2022-10-01T15:30:43;98380.78;;;13.81;83.33
5703;BME280;2876;51.738;10.050;2022-10-01T15:36:47;98359.00;;;13.37;85.64
5703;BME280;2876;51.738;10.050;2022-10-01T15:43:33;98350.19;;;13.02;88.39
5703;BME280;2876;51.738;10.050;2022-10-01T15:49:35;98350.13;;;12.97;88.76
5703;BME280;2876;51.738;10.050;2022-10-01T15:55:52;98369.31;;;12.88;88.38
5703;BME280;2876;51.738;10.050;2022-10-01T16:02:22;98372.53;;;12.62;90.44
5703;BME280;2876;51.738;10.050;2022-10-01T16:08:29;98383.53;;;12.60;91.81
5703;BME280;2876;51.738;10.050;2022-10-01T16:14:42;98404.38;;;12.41;94.07
5703;BME280;2876;51.738;10.050;2022-10-01T16:20:55;98408.91;;;12.29;95.78
5703;BME280;2876;51.738;10.050;2022-10-01T16:26:59;98419.91;;;12.63;94.66
5703;BME280;2876;51.738;10.050;2022-10-01T16:33:08;98439.31;;;12.53;95.30
5703;BME280;2876;51.738;10.050;2022-10-01T16:45:26;98444.47;;;12.78;95.77
5703;BME280;2876;51.738;10.050;2022-10-01T16:51:29;98460.25;;;12.75;95.38
5703;BME280;2876;51.738;10.050;2022-10-01T16:57:32;98467.16;;;12.59;95.75
5703;BME280;2876;51.738;10.050;2022-10-01T17:03:35;98483.66;;;12.51;95.64
5703;BME280;2876;51.738;10.050;2022-10-01T17:09:37;98487.00;;;12.34;96.65
5703;BME280;2876;51.738;10.050;2022-10-01T17:15:41;98500.16;;;12.01;97.88
5703;BME280;2876;51.738;10.050;2022-10-01T17:21:44;98519.09;;;12.06;97.53
5703;BME280;2876;51.738;10.050;2022-10-01T17:27:46;98520.78;;;11.88;97.45
5703;BME280;2876;51.738;10.050;2022-10-01T17:33:49;98527.53;;;11.61;97.59
5703;BME280;2876;51.738;10.050;2022-10-01T17:39:52;98542.16;;;11.47;97.18
5703;BME280;2876;51.738;10.050;2022-10-01T17:46:02;98556.03;;;11.07;98.95
5703;BME280;2876;51.738;10.050;2022-10-01T17:52:04;98565.72;;;11.08;98.97
5703;BME280;2876;51.738;10.050;2022-10-01T17:58:06;98572.25;;;10.93;99.53
5703;BME280;2876;51.738;10.050;2022-10-01T18:04:08;98581.50;;;10.98;99.76
5703;BME280;2876;51.738;10.050;2022-10-01T18:10:13;98596.97;;;10.77;100.00
5703;BME280;2876;51.738;10.050;2022-10-01T18:16:15;98602.69;;;10.81;100.00
5703;BME280;2876;51.738;10.050;2022-10-01T18:22:20;98614.34;;;11.18;100.00
5703;BME280;2876;51.738;10.050;2022-10-01T18:28:23;98638.38;;;11.31;100.00
5703;BME280;2876;51.738;10.050;2022-10-01T18:34:41;98629.84;;;11.59;100.00
5703;BME280;2876;51.738;10.050;2022-10-01T18:40:53;98647.03;;;11.95;100.00
5703;BME280;2876;51.738;10.050;2022-10-01T18:54:33;98665.44;;;11.73;100.00
5703;BME280;2876;51.738;10.050;2022-10-01T19:34:59;98728.44;;;11.52;100.00
5703;BME280;2876;51.738;10.050;2022-10-01T19:41:27;98736.50;;;11.52;100.00
5703;BME280;2876;51.738;10.050;2022-10-01T19:54:34;98751.47;;;11.41;100.00
5703;BME280;2876;51.738;10.050;2022-10-01T20:00:38;98756.69;;;11.36;100.00
5703;BME280;2876;51.738;10.050;2022-10-01T20:41:16;98816.00;;;11.53;100.00
5703;BME280;2876;51.738;10.050;2022-10-01T20:47:30;98837.13;;;11.50;100.00
5703;BME280;2876;51.738;10.050;2022-10-01T20:53:53;98839.03;;;11.42;100.00
5703;BME280;2876;51.738;10.050;2022-10-01T21:00:15;98868.00;;;11.34;100.00
5703;BME280;2876;51.738;10.050;2022-10-01T21:06:25;98877.75;;;11.22;100.00
5703;BME280;2876;51.738;10.050;2022-10-01T21:13:25;98879.50;;;11.09;100.00
5703;BME280;2876;51.738;10.050;2022-10-01T21:34:02;98890.63;;;11.51;100.00
5703;BME280;2876;51.738;10.050;2022-10-01T22:06:44;98918.28;;;11.90;100.00
5703;BME280;2876;51.738;10.050;2022-10-01T22:12:50;98933.25;;;11.73;100.00
5703;BME280;2876;51.738;10.050;2022-10-01T22:19:38;98941.25;;;11.86;99.96
5703;BME280;2876;51.738;10.050;2022-10-01T22:26:31;98941.78;;;11.63;100.00
5703;BME280;2876;51.738;10.050;2022-10-01T22:32:12;98961.91;;;11.54;100.00
5703;BME280;2876;51.738;10.050;2022-10-01T22:38:37;98969.09;;;11.53;100.00
5703;BME280;2876;51.738;10.050;2022-10-01T23:11:59;98988.44;;;11.24;100.00
5703;BME280;2876;51.738;10.050;2022-10-01T23:30:59;98991.13;;;11.24;100.00
5703;BME280;2876;51.738;10.050;2022-10-01T23:43:36;99010.59;;;11.06;100.00
5703;BME280;2876;51.738;10.050;2022-10-01T23:49:54;99026.50;;;10.94;100.00
5703;BME280;2876;51.738;10.050;2022-10-01T23:56:14;99038.50;;;10.91;100.00
